sensor_id;sensor_type;location;lat;lon;timestamp;temperature;humidity
20155;DHT22;10238;49.556;10.956;2023-08-12T00:01:06;18.10;99.90
20155;DHT22;10238;49.556;10.956;2023-08-12T00:03:53;18.10;99.90
20155;DHT22;10238;49.556;10.956;2023-08-12T00:06:41;18.10;99.90
20155;DHT22;10238;49.556;10.956;2023-08-12T00:09:30;18.00;99.90
20155;DHT22;10238;49.556;10.956;2023-08-12T00:12:18;18.00;99.90
20155;DHT22;10238;49.556;10.956;2023-08-12T00:15:07;18.00;99.90
20155;DHT22;10238;49.556;10.956;2023-08-12T00:17:59;17.90;99.90
20155;DHT22;10238;49.556;10.956;2023-08-12T00:20:50;17.90;99.90
20155;DHT22;10238;49.556;10.956;2023-08-12T00:23:41;17.80;99.90
20155;DHT22;10238;49.556;10.956;2023-08-12T00:26:31;17.80;99.90
20155;DHT22;10238;49.556;10.956;2023-08-12T00:29:19;17.80;99.90
20155;DHT22;10238;49.556;10.956;2023-08-12T00:32:08;17.70;99.90
20155;DHT22;10238;49.556;10.956;2023-08-12T00:34:56;17.70;99.90
20155;DHT22;10238;49.556;10.956;2023-08-12T00:37:44;17.70;99.90
20155;DHT22;10238;49.556;10.956;2023-08-12T00:40:32;17.60;99.90
20155;DHT22;10238;49.556;10.956;2023-08-12T00:43:21;17.60;99.90
20155;DHT22;10238;49.556;10.956;2023-08-12T00:46:08;17.60;99.90
20155;DHT22;10238;49.556;10.956;2023-08-12T00:48:56;17.50;99.90
20155;DHT22;10238;49.556;10.956;2023-08-12T00:51:45;17.50;99.90
20155;DHT22;10238;49.556;10.956;2023-08-12T00:54:33;17.50;99.90
20155;DHT22;10238;49.556;10.956;2023-08-12T00:57:21;17.40;99.90
20155;DHT22;10238;49.556;10.956;2023-08-12T01:00:11;17.40;99.90
20155;DHT22;10238;49.556;10.956;2023-08-12T01:03:00;17.40;99.90
20155;DHT22;10238;49.556;10.956;2023-08-12T01:05:50;17.30;99.90
20155;DHT22;10238;49.556;10.956;2023-08-12T01:08:37;17.30;99.90
20155;DHT22;10238;49.556;10.956;2023-08-12T01:11:29;17.30;99.90
20155;DHT22;10238;49.556;10.956;2023-08-12T01:14:28;17.20;99.90
20155;DHT22;10238;49.556;10.956;2023-08-12T01:17:29;17.20;99.90
20155;DHT22;10238;49.556;10.956;2023-08-12T01:20:20;17.20;99.90
20155;DHT22;10238;49.556;10.956;2023-08-12T01:23:13;17.10;99.90
20155;DHT22;10238;49.556;10.956;2023-08-12T01:26:02;17.10;99.90
20155;DHT22;10238;49.556;10.956;2023-08-12T01:28:49;17.10;99.90
20155;DHT22;10238;49.556;10.956;2023-08-12T01:31:43;17.00;99.90
20155;DHT22;10238;49.556;10.956;2023-08-12T01:34:42;17.00;99.90
20155;DHT22;10238;49.556;10.956;2023-08-12T01:37:34;17.00;99.90
20155;DHT22;10238;49.556;10.956;2023-08-12T01:40:26;17.00;99.90
20155;DHT22;10238;49.556;10.956;2023-08-12T01:43:16;16.90;99.90
20155;DHT22;10238;49.556;10.956;2023-08-12T01:46:04;16.90;99.90
20155;DHT22;10238;49.556;10.956;2023-08-12T01:48:52;16.90;99.90
20155;DHT22;10238;49.556;10.956;2023-08-12T01:51:40;16.90;99.90
20155;DHT22;10238;49.556;10.956;2023-08-12T01:54:28;16.80;99.90
20155;DHT22;10238;49.556;10.956;2023-08-12T01:57:20;16.80;99.90
20155;DHT22;10238;49.556;10.956;2023-08-12T02:00:09;16.70;99.90
20155;DHT22;10238;49.556;10.956;2023-08-12T02:02:57;16.70;99.90
20155;DHT22;10238;49.556;10.956;2023-08-12T02:05:45;16.70;99.90
20155;DHT22;10238;49.556;10.956;2023-08-12T02:08:33;16.70;99.90
20155;DHT22;10238;49.556;10.956;2023-08-12T02:11:20;16.70;99.90
20155;DHT22;10238;49.556;10.956;2023-08-12T02:14:09;16.70;99.90
20155;DHT22;10238;49.556;10.956;2023-08-12T02:16:57;16.70;99.90
20155;DHT22;10238;49.556;10.956;2023-08-12T02:19:45;16.60;99.90
20155;DHT22;10238;49.556;10.956;2023-08-12T02:22:32;16.60;99.90
20155;DHT22;10238;49.556;10.956;2023-08-12T02:25:20;16.50;99.90
20155;DHT22;10238;49.556;10.956;2023-08-12T02:28:07;16.50;99.90
20155;DHT22;10238;49.556;10.956;2023-08-12T02:30:56;16.50;99.90
20155;DHT22;10238;49.556;10.956;2023-08-12T02:33:44;16.50;99.90
20155;DHT22;10238;49.556;10.956;2023-08-12T02:36:32;16.50;99.90
20155;DHT22;10238;49.556;10.956;2023-08-12T02:39:19;16.50;99.90
20155;DHT22;10238;49.556;10.956;2023-08-12T02:42:07;16.40;99.90
20155;DHT22;10238;49.556;10.956;2023-08-12T02:44:55;16.40;99.90
20155;DHT22;10238;49.556;10.956;2023-08-12T02:47:44;16.40;99.90
20155;DHT22;10238;49.556;10.956;2023-08-12T02:50:32;16.30;99.90
20155;DHT22;10238;49.556;10.956;2023-08-12T02:53:19;16.30;99.90
20155;DHT22;10238;49.556;10.956;2023-08-12T02:56:07;16.30;99.90
20155;DHT22;10238;49.556;10.956;2023-08-12T02:58:54;16.30;99.90
20155;DHT22;10238;49.556;10.956;2023-08-12T03:01:42;16.20;99.90
20155;DHT22;10238;49.556;10.956;2023-08-12T03:04:31;16.20;99.90
20155;DHT22;10238;49.556;10.956;2023-08-12T03:07:19;16.20;99.90
20155;DHT22;10238;49.556;10.956;2023-08-12T03:10:07;16.20;99.90
20155;DHT22;10238;49.556;10.956;2023-08-12T03:12:55;16.20;99.90
20155;DHT22;10238;49.556;10.956;2023-08-12T03:15:42;16.10;99.90
20155;DHT22;10238;49.556;10.956;2023-08-12T03:18:30;16.10;99.90
20155;DHT22;10238;49.556;10.956;2023-08-12T03:21:27;16.10;99.90
20155;DHT22;10238;49.556;10.956;2023-08-12T03:24:15;16.10;99.90
20155;DHT22;10238;49.556;10.956;2023-08-12T03:27:03;16.00;99.90
20155;DHT22;10238;49.556;10.956;2023-08-12T03:29:50;16.00;99.90
20155;DHT22;10238;49.556;10.956;2023-08-12T03:32:38;16.00;99.90
20155;DHT22;10238;49.556;10.956;2023-08-12T03:35:26;16.00;99.90
20155;DHT22;10238;49.556;10.956;2023-08-12T03:38:15;16.00;99.90
20155;DHT22;10238;49.556;10.956;2023-08-12T03:41:02;16.00;99.90
20155;DHT22;10238;49.556;10.956;2023-08-12T03:43:50;16.00;99.90
20155;DHT22;10238;49.556;10.956;2023-08-12T03:46:37;15.90;99.90
20155;DHT22;10238;49.556;10.956;2023-08-12T03:49:25;15.90;99.90
20155;DHT22;10238;49.556;10.956;2023-08-12T03:52:12;15.90;99.90
20155;DHT22;10238;49.556;10.956;2023-08-12T03:55:01;15.80;99.90
20155;DHT22;10238;49.556;10.956;2023-08-12T03:57:49;15.90;99.90
20155;DHT22;10238;49.556;10.956;2023-08-12T04:00:40;15.80;99.90
20155;DHT22;10238;49.556;10.956;2023-08-12T04:03:29;15.80;99.90
20155;DHT22;10238;49.556;10.956;2023-08-12T04:06:17;15.80;99.90
20155;DHT22;10238;49.556;10.956;2023-08-12T04:09:05;15.80;99.90
20155;DHT22;10238;49.556;10.956;2023-08-12T04:11:54;15.80;99.90
20155;DHT22;10238;49.556;10.956;2023-08-12T04:14:42;15.80;99.90
20155;DHT22;10238;49.556;10.956;2023-08-12T04:17:30;15.80;99.90
20155;DHT22;10238;49.556;10.956;2023-08-12T04:20:18;15.90;99.90
20155;DHT22;10238;49.556;10.956;2023-08-12T04:23:08;15.80;99.90
20155;DHT22;10238;49.556;10.956;2023-08-12T04:25:56;15.90;99.90
20155;DHT22;10238;49.556;10.956;2023-08-12T04:28:45;15.80;99.90
20155;DHT22;10238;49.556;10.956;2023-08-12T04:31:33;15.90;99.90
20155;DHT22;10238;49.556;10.956;2023-08-12T04:34:20;15.90;99.90
20155;DHT22;10238;49.556;10.956;2023-08-12T04:37:08;15.90;99.90
20155;DHT22;10238;49.556;10.956;2023-08-12T04:39:56;15.90;99.90
20155;DHT22;10238;49.556;10.956;2023-08-12T04:42:44;16.00;99.90
20155;DHT22;10238;49.556;10.956;2023-08-12T04:45:34;16.00;99.90
20155;DHT22;10238;49.556;10.956;2023-08-12T04:48:22;16.00;99.90
20155;DHT22;10238;49.556;10.956;2023-08-12T04:51:09;16.00;99.90
20155;DHT22;10238;49.556;10.956;2023-08-12T04:53:57;16.00;99.90
20155;DHT22;10238;49.556;10.956;2023-08-12T04:56:46;16.10;99.90
20155;DHT22;10238;49.556;10.956;2023-08-12T04:59:34;16.10;99.90
20155;DHT22;10238;49.556;10.956;2023-08-12T05:02:23;16.10;99.90
20155;DHT22;10238;49.556;10.956;2023-08-12T05:05:12;16.20;99.90
20155;DHT22;10238;49.556;10.956;2023-08-12T05:08:00;16.20;99.90
20155;DHT22;10238;49.556;10.956;2023-08-12T05:10:48;16.20;99.90
20155;DHT22;10238;49.556;10.956;2023-08-12T05:13:36;16.30;99.90
20155;DHT22;10238;49.556;10.956;2023-08-12T05:16:24;16.40;99.90
20155;DHT22;10238;49.556;10.956;2023-08-12T05:19:13;16.40;99.90
20155;DHT22;10238;49.556;10.956;2023-08-12T05:22:01;16.50;99.90
20155;DHT22;10238;49.556;10.956;2023-08-12T05:24:48;16.60;99.90
20155;DHT22;10238;49.556;10.956;2023-08-12T05:27:36;16.70;99.90
20155;DHT22;10238;49.556;10.956;2023-08-12T05:30:24;16.80;99.90
20155;DHT22;10238;49.556;10.956;2023-08-12T05:33:12;16.90;99.90
20155;DHT22;10238;49.556;10.956;2023-08-12T05:36:01;17.10;99.90
20155;DHT22;10238;49.556;10.956;2023-08-12T05:38:50;17.30;99.90
20155;DHT22;10238;49.556;10.956;2023-08-12T05:41:37;17.60;99.90
20155;DHT22;10238;49.556;10.956;2023-08-12T05:44:25;17.80;99.90
20155;DHT22;10238;49.556;10.956;2023-08-12T05:47:13;18.10;99.90
20155;DHT22;10238;49.556;10.956;2023-08-12T05:50:01;18.20;99.90
20155;DHT22;10238;49.556;10.956;2023-08-12T05:52:50;18.30;99.90
20155;DHT22;10238;49.556;10.956;2023-08-12T05:55:38;18.40;99.90
20155;DHT22;10238;49.556;10.956;2023-08-12T05:58:26;18.50;99.90
20155;DHT22;10238;49.556;10.956;2023-08-12T06:01:13;18.50;99.90
20155;DHT22;10238;49.556;10.956;2023-08-12T06:04:01;18.60;99.90
20155;DHT22;10238;49.556;10.956;2023-08-12T06:06:48;18.60;99.90
20155;DHT22;10238;49.556;10.956;2023-08-12T06:09:38;18.70;99.90
20155;DHT22;10238;49.556;10.956;2023-08-12T06:12:26;18.70;99.90
20155;DHT22;10238;49.556;10.956;2023-08-12T06:15:13;18.80;99.90
20155;DHT22;10238;49.556;10.956;2023-08-12T06:18:01;18.80;99.90
20155;DHT22;10238;49.556;10.956;2023-08-12T06:20:49;18.90;99.90
20155;DHT22;10238;49.556;10.956;2023-08-12T06:23:37;19.00;99.90
20155;DHT22;10238;49.556;10.956;2023-08-12T06:26:26;19.00;99.90
20155;DHT22;10238;49.556;10.956;2023-08-12T06:29:14;19.10;99.90
20155;DHT22;10238;49.556;10.956;2023-08-12T06:32:02;19.10;99.90
20155;DHT22;10238;49.556;10.956;2023-08-12T06:34:49;19.30;99.90
20155;DHT22;10238;49.556;10.956;2023-08-12T06:37:37;19.40;99.90
20155;DHT22;10238;49.556;10.956;2023-08-12T06:40:24;19.50;99.90
20155;DHT22;10238;49.556;10.956;2023-08-12T06:43:14;19.60;99.90
20155;DHT22;10238;49.556;10.956;2023-08-12T06:46:05;19.80;99.90
20155;DHT22;10238;49.556;10.956;2023-08-12T06:48:53;19.80;99.90
20155;DHT22;10238;49.556;10.956;2023-08-12T06:51:40;20.00;99.90
20155;DHT22;10238;49.556;10.956;2023-08-12T06:54:28;20.00;99.90
20155;DHT22;10238;49.556;10.956;2023-08-12T06:57:15;20.10;99.90
20155;DHT22;10238;49.556;10.956;2023-08-12T07:00:06;20.30;99.90
20155;DHT22;10238;49.556;10.956;2023-08-12T07:02:54;20.40;99.90
20155;DHT22;10238;49.556;10.956;2023-08-12T07:05:42;20.50;99.90
20155;DHT22;10238;49.556;10.956;2023-08-12T07:08:29;20.70;99.90
20155;DHT22;10238;49.556;10.956;2023-08-12T07:11:18;20.80;99.90
20155;DHT22;10238;49.556;10.956;2023-08-12T07:14:06;21.00;99.90
20155;DHT22;10238;49.556;10.956;2023-08-12T07:16:55;21.20;99.90
20155;DHT22;10238;49.556;10.956;2023-08-12T07:19:43;21.50;99.90
20155;DHT22;10238;49.556;10.956;2023-08-12T07:22:31;21.70;99.90
20155;DHT22;10238;49.556;10.956;2023-08-12T07:25:18;21.70;99.90
20155;DHT22;10238;49.556;10.956;2023-08-12T07:28:06;21.90;99.90
20155;DHT22;10238;49.556;10.956;2023-08-12T07:30:54;22.10;99.90
20155;DHT22;10238;49.556;10.956;2023-08-12T07:33:43;22.10;99.90
20155;DHT22;10238;49.556;10.956;2023-08-12T07:36:31;22.30;99.90
20155;DHT22;10238;49.556;10.956;2023-08-12T07:39:19;22.30;99.90
20155;DHT22;10238;49.556;10.956;2023-08-12T07:42:07;22.40;99.90
20155;DHT22;10238;49.556;10.956;2023-08-12T07:44:55;22.50;99.90
20155;DHT22;10238;49.556;10.956;2023-08-12T07:47:43;22.70;99.90
20155;DHT22;10238;49.556;10.956;2023-08-12T07:50:32;22.80;99.90
20155;DHT22;10238;49.556;10.956;2023-08-12T07:53:20;22.80;99.90
20155;DHT22;10238;49.556;10.956;2023-08-12T07:56:07;22.90;99.90
20155;DHT22;10238;49.556;10.956;2023-08-12T07:58:55;22.90;99.90
20155;DHT22;10238;49.556;10.956;2023-08-12T08:01:43;23.00;99.90
20155;DHT22;10238;49.556;10.956;2023-08-12T08:04:30;23.10;99.90
20155;DHT22;10238;49.556;10.956;2023-08-12T08:07:19;23.30;99.90
20155;DHT22;10238;49.556;10.956;2023-08-12T08:10:08;23.50;99.90
20155;DHT22;10238;49.556;10.956;2023-08-12T08:12:56;23.60;99.90
20155;DHT22;10238;49.556;10.956;2023-08-12T08:15:44;23.70;99.90
20155;DHT22;10238;49.556;10.956;2023-08-12T08:18:32;23.80;99.90
20155;DHT22;10238;49.556;10.956;2023-08-12T08:21:20;23.80;99.90
20155;DHT22;10238;49.556;10.956;2023-08-12T08:24:09;23.90;99.90
20155;DHT22;10238;49.556;10.956;2023-08-12T08:26:57;24.30;99.90
20155;DHT22;10238;49.556;10.956;2023-08-12T08:29:44;24.60;99.90
20155;DHT22;10238;49.556;10.956;2023-08-12T08:32:33;24.80;99.90
20155;DHT22;10238;49.556;10.956;2023-08-12T08:35:21;24.90;99.90
20155;DHT22;10238;49.556;10.956;2023-08-12T08:38:08;24.90;99.90
20155;DHT22;10238;49.556;10.956;2023-08-12T08:40:58;25.00;99.90
20155;DHT22;10238;49.556;10.956;2023-08-12T08:43:47;25.00;99.90
20155;DHT22;10238;49.556;10.956;2023-08-12T08:46:37;25.00;99.90
20155;DHT22;10238;49.556;10.956;2023-08-12T08:49:25;25.30;99.90
20155;DHT22;10238;49.556;10.956;2023-08-12T08:52:16;25.90;99.90
20155;DHT22;10238;49.556;10.956;2023-08-12T08:55:05;26.20;99.90
20155;DHT22;10238;49.556;10.956;2023-08-12T08:57:56;26.20;99.90
20155;DHT22;10238;49.556;10.956;2023-08-12T09:00:47;26.20;99.90
20155;DHT22;10238;49.556;10.956;2023-08-12T09:03:38;26.60;99.90
20155;DHT22;10238;49.556;10.956;2023-08-12T09:06:28;26.80;99.90
20155;DHT22;10238;49.556;10.956;2023-08-12T09:09:18;26.70;99.90
20155;DHT22;10238;49.556;10.956;2023-08-12T09:12:08;26.60;99.90
20155;DHT22;10238;49.556;10.956;2023-08-12T09:15:02;26.60;99.90
20155;DHT22;10238;49.556;10.956;2023-08-12T09:17:52;26.60;99.90
20155;DHT22;10238;49.556;10.956;2023-08-12T09:20:41;26.60;99.90
20155;DHT22;10238;49.556;10.956;2023-08-12T09:23:34;26.70;99.90
20155;DHT22;10238;49.556;10.956;2023-08-12T09:26:24;26.90;99.90
20155;DHT22;10238;49.556;10.956;2023-08-12T09:29:11;27.30;99.90
20155;DHT22;10238;49.556;10.956;2023-08-12T09:32:10;27.80;99.90
20155;DHT22;10238;49.556;10.956;2023-08-12T09:34:59;28.10;99.90
20155;DHT22;10238;49.556;10.956;2023-08-12T09:37:49;28.40;99.90
20155;DHT22;10238;49.556;10.956;2023-08-12T09:40:37;28.40;99.90
20155;DHT22;10238;49.556;10.956;2023-08-12T09:43:27;28.40;99.90
20155;DHT22;10238;49.556;10.956;2023-08-12T09:46:16;28.10;99.90
20155;DHT22;10238;49.556;10.956;2023-08-12T09:49:06;28.20;99.90
20155;DHT22;10238;49.556;10.956;2023-08-12T09:51:55;28.40;99.90
20155;DHT22;10238;49.556;10.956;2023-08-12T09:54:44;28.10;99.90
20155;DHT22;10238;49.556;10.956;2023-08-12T09:57:34;28.10;99.90
20155;DHT22;10238;49.556;10.956;2023-08-12T10:00:28;27.90;99.90
20155;DHT22;10238;49.556;10.956;2023-08-12T10:03:18;27.70;99.90
20155;DHT22;10238;49.556;10.956;2023-08-12T10:06:09;28.00;99.90
20155;DHT22;10238;49.556;10.956;2023-08-12T10:09:00;28.60;99.90
20155;DHT22;10238;49.556;10.956;2023-08-12T10:11:51;29.10;99.90
20155;DHT22;10238;49.556;10.956;2023-08-12T10:14:40;29.40;99.90
20155;DHT22;10238;49.556;10.956;2023-08-12T10:17:29;29.50;99.90
20155;DHT22;10238;49.556;10.956;2023-08-12T10:20:23;29.60;99.90
20155;DHT22;10238;49.556;10.956;2023-08-12T10:23:16;30.30;99.90
20155;DHT22;10238;49.556;10.956;2023-08-12T10:26:05;30.40;99.90
20155;DHT22;10238;49.556;10.956;2023-08-12T10:28:54;30.60;99.90
20155;DHT22;10238;49.556;10.956;2023-08-12T10:31:42;30.50;99.90
20155;DHT22;10238;49.556;10.956;2023-08-12T10:34:31;30.40;99.90
20155;DHT22;10238;49.556;10.956;2023-08-12T10:37:19;30.10;99.90
20155;DHT22;10238;49.556;10.956;2023-08-12T10:40:20;30.30;99.90
20155;DHT22;10238;49.556;10.956;2023-08-12T10:43:11;30.70;99.90
20155;DHT22;10238;49.556;10.956;2023-08-12T10:45:59;30.90;99.90
20155;DHT22;10238;49.556;10.956;2023-08-12T10:48:56;31.00;99.90
20155;DHT22;10238;49.556;10.956;2023-08-12T10:51:47;30.60;99.90
20155;DHT22;10238;49.556;10.956;2023-08-12T10:54:36;30.70;99.90
20155;DHT22;10238;49.556;10.956;2023-08-12T10:57:37;30.50;99.90
20155;DHT22;10238;49.556;10.956;2023-08-12T11:00:26;30.50;99.90
20155;DHT22;10238;49.556;10.956;2023-08-12T11:03:18;30.90;99.90
20155;DHT22;10238;49.556;10.956;2023-08-12T11:06:06;31.20;99.90
20155;DHT22;10238;49.556;10.956;2023-08-12T11:08:55;31.40;99.90
20155;DHT22;10238;49.556;10.956;2023-08-12T11:11:44;31.40;99.90
20155;DHT22;10238;49.556;10.956;2023-08-12T11:14:33;31.60;99.90
20155;DHT22;10238;49.556;10.956;2023-08-12T11:17:33;31.80;99.90
20155;DHT22;10238;49.556;10.956;2023-08-12T11:20:22;32.20;99.90
20155;DHT22;10238;49.556;10.956;2023-08-12T11:23:10;32.00;99.90
20155;DHT22;10238;49.556;10.956;2023-08-12T11:25:58;32.10;99.90
20155;DHT22;10238;49.556;10.956;2023-08-12T11:28:48;32.60;99.90
20155;DHT22;10238;49.556;10.956;2023-08-12T11:31:37;32.50;99.90
20155;DHT22;10238;49.556;10.956;2023-08-12T11:34:25;32.10;99.90
20155;DHT22;10238;49.556;10.956;2023-08-12T11:37:13;31.90;99.90
20155;DHT22;10238;49.556;10.956;2023-08-12T11:40:08;32.20;99.90
20155;DHT22;10238;49.556;10.956;2023-08-12T11:43:04;32.90;99.90
20155;DHT22;10238;49.556;10.956;2023-08-12T11:45:55;33.10;99.90
20155;DHT22;10238;49.556;10.956;2023-08-12T11:48:44;33.00;99.90
20155;DHT22;10238;49.556;10.956;2023-08-12T11:51:35;33.50;99.90
20155;DHT22;10238;49.556;10.956;2023-08-12T11:54:23;33.90;99.90
20155;DHT22;10238;49.556;10.956;2023-08-12T11:57:14;33.90;99.90
20155;DHT22;10238;49.556;10.956;2023-08-12T12:00:03;34.00;99.90
20155;DHT22;10238;49.556;10.956;2023-08-12T12:03:01;34.00;99.90
20155;DHT22;10238;49.556;10.956;2023-08-12T12:05:55;34.10;99.90
20155;DHT22;10238;49.556;10.956;2023-08-12T12:08:44;34.10;99.90
20155;DHT22;10238;49.556;10.956;2023-08-12T12:11:32;34.10;99.70
20155;DHT22;10238;49.556;10.956;2023-08-12T12:14:21;34.10;99.90
20155;DHT22;10238;49.556;10.956;2023-08-12T12:17:08;34.50;99.90
20155;DHT22;10238;49.556;10.956;2023-08-12T12:19:58;34.90;99.90
20155;DHT22;10238;49.556;10.956;2023-08-12T12:22:49;35.20;99.90
20155;DHT22;10238;49.556;10.956;2023-08-12T12:25:37;35.50;99.90
20155;DHT22;10238;49.556;10.956;2023-08-12T12:28:28;35.70;98.90
20155;DHT22;10238;49.556;10.956;2023-08-12T12:31:15;35.70;99.00
20155;DHT22;10238;49.556;10.956;2023-08-12T12:34:03;35.80;98.80
20155;DHT22;10238;49.556;10.956;2023-08-12T12:36:52;35.20;98.00
20155;DHT22;10238;49.556;10.956;2023-08-12T12:39:41;35.10;99.40
20155;DHT22;10238;49.556;10.956;2023-08-12T12:42:29;35.20;99.90
20155;DHT22;10238;49.556;10.956;2023-08-12T12:45:17;35.60;99.70
20155;DHT22;10238;49.556;10.956;2023-08-12T12:48:05;35.70;98.90
20155;DHT22;10238;49.556;10.956;2023-08-12T12:50:53;35.50;97.60
20155;DHT22;10238;49.556;10.956;2023-08-12T12:53:41;35.40;98.40
20155;DHT22;10238;49.556;10.956;2023-08-12T12:56:30;35.20;99.40
20155;DHT22;10238;49.556;10.956;2023-08-12T12:59:18;35.10;97.50
20155;DHT22;10238;49.556;10.956;2023-08-12T13:02:05;35.20;99.90
20155;DHT22;10238;49.556;10.956;2023-08-12T13:04:54;35.40;99.20
20155;DHT22;10238;49.556;10.956;2023-08-12T13:07:41;35.50;97.40
20155;DHT22;10238;49.556;10.956;2023-08-12T13:10:29;35.30;97.10
20155;DHT22;10238;49.556;10.956;2023-08-12T13:13:18;35.30;99.60
20155;DHT22;10238;49.556;10.956;2023-08-12T13:16:06;34.90;96.40
20155;DHT22;10238;49.556;10.956;2023-08-12T13:18:54;34.60;99.90
20155;DHT22;10238;49.556;10.956;2023-08-12T13:21:42;34.90;98.60
20155;DHT22;10238;49.556;10.956;2023-08-12T13:24:30;35.10;96.10
20155;DHT22;10238;49.556;10.956;2023-08-12T13:27:18;35.40;98.10
20155;DHT22;10238;49.556;10.956;2023-08-12T13:30:08;35.30;96.90
20155;DHT22;10238;49.556;10.956;2023-08-12T13:32:57;35.20;98.70
20155;DHT22;10238;49.556;10.956;2023-08-12T13:35:47;35.10;97.80
20155;DHT22;10238;49.556;10.956;2023-08-12T13:38:34;35.00;96.00
20155;DHT22;10238;49.556;10.956;2023-08-12T13:41:22;34.80;98.20
20155;DHT22;10238;49.556;10.956;2023-08-12T13:44:10;34.70;99.00
20155;DHT22;10238;49.556;10.956;2023-08-12T13:46:58;34.60;99.90
20155;DHT22;10238;49.556;10.956;2023-08-12T13:49:46;34.30;99.90
20155;DHT22;10238;49.556;10.956;2023-08-12T13:52:34;33.80;99.90
20155;DHT22;10238;49.556;10.956;2023-08-12T13:55:22;33.30;99.90
20155;DHT22;10238;49.556;10.956;2023-08-12T13:58:11;32.80;99.90
20155;DHT22;10238;49.556;10.956;2023-08-12T14:00:59;32.60;99.90
20155;DHT22;10238;49.556;10.956;2023-08-12T14:03:48;31.70;99.90
20155;DHT22;10238;49.556;10.956;2023-08-12T14:06:36;30.50;99.90
20155;DHT22;10238;49.556;10.956;2023-08-12T14:09:23;29.30;99.90
20155;DHT22;10238;49.556;10.956;2023-08-12T14:12:11;28.60;99.90
20155;DHT22;10238;49.556;10.956;2023-08-12T14:14:59;28.10;99.90
20155;DHT22;10238;49.556;10.956;2023-08-12T14:17:47;27.50;99.90
20155;DHT22;10238;49.556;10.956;2023-08-12T14:20:37;27.30;99.90
20155;DHT22;10238;49.556;10.956;2023-08-12T14:23:25;27.20;99.90
20155;DHT22;10238;49.556;10.956;2023-08-12T14:26:12;27.10;99.90
20155;DHT22;10238;49.556;10.956;2023-08-12T14:29:00;26.80;99.90
20155;DHT22;10238;49.556;10.956;2023-08-12T14:31:48;26.30;99.90
20155;DHT22;10238;49.556;10.956;2023-08-12T14:34:36;25.80;99.90
20155;DHT22;10238;49.556;10.956;2023-08-12T14:37:25;25.40;99.90
20155;DHT22;10238;49.556;10.956;2023-08-12T14:40:15;25.10;99.90
20155;DHT22;10238;49.556;10.956;2023-08-12T14:43:03;25.00;99.90
20155;DHT22;10238;49.556;10.956;2023-08-12T14:45:51;24.90;99.90
20155;DHT22;10238;49.556;10.956;2023-08-12T14:48:39;24.80;99.90
20155;DHT22;10238;49.556;10.956;2023-08-12T14:51:26;24.60;99.90
20155;DHT22;10238;49.556;10.956;2023-08-12T14:54:17;24.40;99.90
20155;DHT22;10238;49.556;10.956;2023-08-12T14:57:04;24.20;99.90
20155;DHT22;10238;49.556;10.956;2023-08-12T14:59:52;24.00;99.90
20155;DHT22;10238;49.556;10.956;2023-08-12T15:02:40;23.90;99.90
20155;DHT22;10238;49.556;10.956;2023-08-12T15:05:28;23.70;99.90
20155;DHT22;10238;49.556;10.956;2023-08-12T15:08:16;23.50;99.90
20155;DHT22;10238;49.556;10.956;2023-08-12T15:11:05;23.30;99.90
20155;DHT22;10238;49.556;10.956;2023-08-12T15:13:53;23.20;99.90
20155;DHT22;10238;49.556;10.956;2023-08-12T15:16:41;23.10;99.90
20155;DHT22;10238;49.556;10.956;2023-08-12T15:19:28;23.00;99.90
20155;DHT22;10238;49.556;10.956;2023-08-12T15:22:16;22.80;99.90
20155;DHT22;10238;49.556;10.956;2023-08-12T15:25:04;22.60;99.90
20155;DHT22;10238;49.556;10.956;2023-08-12T15:27:54;22.50;99.90
20155;DHT22;10238;49.556;10.956;2023-08-12T15:30:42;22.30;99.90
20155;DHT22;10238;49.556;10.956;2023-08-12T15:33:30;22.10;99.90
20155;DHT22;10238;49.556;10.956;2023-08-12T15:36:18;22.00;99.90
20155;DHT22;10238;49.556;10.956;2023-08-12T15:39:06;21.80;99.90
20155;DHT22;10238;49.556;10.956;2023-08-12T15:41:54;21.70;99.90
20155;DHT22;10238;49.556;10.956;2023-08-12T15:44:43;21.70;99.90
20155;DHT22;10238;49.556;10.956;2023-08-12T15:47:31;21.70;99.90
20155;DHT22;10238;49.556;10.956;2023-08-12T15:50:20;21.70;99.90
20155;DHT22;10238;49.556;10.956;2023-08-12T15:53:07;21.60;99.90
20155;DHT22;10238;49.556;10.956;2023-08-12T15:55:55;21.60;99.90
20155;DHT22;10238;49.556;10.956;2023-08-12T15:58:43;21.60;99.90
20155;DHT22;10238;49.556;10.956;2023-08-12T16:01:32;21.70;99.90
20155;DHT22;10238;49.556;10.956;2023-08-12T16:04:21;21.80;99.90
20155;DHT22;10238;49.556;10.956;2023-08-12T16:07:09;21.90;99.90
20155;DHT22;10238;49.556;10.956;2023-08-12T16:09:56;21.90;99.90
20155;DHT22;10238;49.556;10.956;2023-08-12T16:12:44;22.10;99.90
20155;DHT22;10238;49.556;10.956;2023-08-12T16:15:32;22.20;99.90
20155;DHT22;10238;49.556;10.956;2023-08-12T16:18:21;22.30;99.90
20155;DHT22;10238;49.556;10.956;2023-08-12T16:21:08;22.40;99.90
20155;DHT22;10238;49.556;10.956;2023-08-12T16:23:56;22.50;99.90
20155;DHT22;10238;49.556;10.956;2023-08-12T16:26:47;22.70;99.90
20155;DHT22;10238;49.556;10.956;2023-08-12T16:29:35;23.00;99.90
20155;DHT22;10238;49.556;10.956;2023-08-12T16:32:23;23.30;99.90
20155;DHT22;10238;49.556;10.956;2023-08-12T16:35:11;23.60;99.90
20155;DHT22;10238;49.556;10.956;2023-08-12T16:37:59;24.10;99.90
20155;DHT22;10238;49.556;10.956;2023-08-12T16:40:48;24.20;99.90
20155;DHT22;10238;49.556;10.956;2023-08-12T16:43:36;24.40;99.90
20155;DHT22;10238;49.556;10.956;2023-08-12T16:46:23;24.40;99.90
20155;DHT22;10238;49.556;10.956;2023-08-12T16:49:11;24.40;99.90
20155;DHT22;10238;49.556;10.956;2023-08-12T16:52:03;24.30;99.90
20155;DHT22;10238;49.556;10.956;2023-08-12T16:54:51;24.20;99.90
20155;DHT22;10238;49.556;10.956;2023-08-12T16:57:39;24.10;99.90
20155;DHT22;10238;49.556;10.956;2023-08-12T17:00:27;24.10;99.90
20155;DHT22;10238;49.556;10.956;2023-08-12T17:03:15;24.00;99.90
20155;DHT22;10238;49.556;10.956;2023-08-12T17:06:03;24.00;99.90
20155;DHT22;10238;49.556;10.956;2023-08-12T17:08:52;23.90;99.90
20155;DHT22;10238;49.556;10.956;2023-08-12T17:11:40;23.70;99.90
20155;DHT22;10238;49.556;10.956;2023-08-12T17:14:28;23.70;99.90
20155;DHT22;10238;49.556;10.956;2023-08-12T17:17:16;23.60;99.90
20155;DHT22;10238;49.556;10.956;2023-08-12T17:20:05;23.50;99.90
20155;DHT22;10238;49.556;10.956;2023-08-12T17:22:53;23.50;99.90
20155;DHT22;10238;49.556;10.956;2023-08-12T17:25:42;23.40;99.90
20155;DHT22;10238;49.556;10.956;2023-08-12T17:28:30;23.20;99.90